sensor_id;sensor_type;location;lat;lon;timestamp;temperature;humidity
23671;DHT22;12012;51.998;7.614;2023-05-29T00:01:29;12.90;99.90
23671;DHT22;12012;51.998;7.614;2023-05-29T00:03:56;12.80;99.90
23671;DHT22;12012;51.998;7.614;2023-05-29T00:06:23;12.80;99.90
23671;DHT22;12012;51.998;7.614;2023-05-29T00:08:49;12.70;99.90
23671;DHT22;12012;51.998;7.614;2023-05-29T00:11:14;12.60;99.90
23671;DHT22;12012;51.998;7.614;2023-05-29T00:13:40;12.60;99.90
23671;DHT22;12012;51.998;7.614;2023-05-29T00:16:06;12.60;99.90
23671;DHT22;12012;51.998;7.614;2023-05-29T00:18:32;12.50;99.90
23671;DHT22;12012;51.998;7.614;2023-05-29T00:20:57;12.50;99.90
23671;DHT22;12012;51.998;7.614;2023-05-29T00:23:23;12.40;99.90
23671;DHT22;12012;51.998;7.614;2023-05-29T00:25:48;12.40;99.90
23671;DHT22;12012;51.998;7.614;2023-05-29T00:28:14;12.40;99.90
23671;DHT22;12012;51.998;7.614;2023-05-29T00:30:40;12.30;99.90
23671;DHT22;12012;51.998;7.614;2023-05-29T00:33:05;12.30;99.90
23671;DHT22;12012;51.998;7.614;2023-05-29T00:35:31;12.20;99.90
23671;DHT22;12012;51.998;7.614;2023-05-29T00:37:57;12.20;99.90
23671;DHT22;12012;51.998;7.614;2023-05-29T00:40:23;12.20;99.90
23671;DHT22;12012;51.998;7.614;2023-05-29T00:42:49;12.10;99.90
23671;DHT22;12012;51.998;7.614;2023-05-29T00:45:14;12.10;99.90
23671;DHT22;12012;51.998;7.614;2023-05-29T00:47:42;12.10;99.90
23671;DHT22;12012;51.998;7.614;2023-05-29T00:50:09;12.10;99.90
23671;DHT22;12012;51.998;7.614;2023-05-29T00:52:36;12.00;99.90
23671;DHT22;12012;51.998;7.614;2023-05-29T00:55:02;12.00;99.90
23671;DHT22;12012;51.998;7.614;2023-05-29T00:57:28;12.00;99.90
23671;DHT22;12012;51.998;7.614;2023-05-29T00:59:55;11.90;99.90
23671;DHT22;12012;51.998;7.614;2023-05-29T01:02:21;11.90;99.90
23671;DHT22;12012;51.998;7.614;2023-05-29T01:04:48;11.80;1.00
23671;DHT22;12012;51.998;7.614;2023-05-29T01:07:14;11.80;99.90
23671;DHT22;12012;51.998;7.614;2023-05-29T01:09:40;11.80;99.90
23671;DHT22;12012;51.998;7.614;2023-05-29T01:12:50;11.80;99.90
23671;DHT22;12012;51.998;7.614;2023-05-29T01:15:17;11.80;99.90
23671;DHT22;12012;51.998;7.614;2023-05-29T01:23:14;11.70;1.00
23671;DHT22;12012;51.998;7.614;2023-05-29T01:28:42;11.70;1.00
23671;DHT22;12012;51.998;7.614;2023-05-29T01:31:09;11.60;1.00
23671;DHT22;12012;51.998;7.614;2023-05-29T01:33:39;11.60;1.00
23671;DHT22;12012;51.998;7.614;2023-05-29T01:36:07;11.60;1.00
23671;DHT22;12012;51.998;7.614;2023-05-29T01:38:33;11.50;1.00
23671;DHT22;12012;51.998;7.614;2023-05-29T01:40:59;11.50;1.00
23671;DHT22;12012;51.998;7.614;2023-05-29T01:43:25;11.50;1.00
23671;DHT22;12012;51.998;7.614;2023-05-29T01:45:52;11.50;1.00
23671;DHT22;12012;51.998;7.614;2023-05-29T01:48:17;11.40;1.00
23671;DHT22;12012;51.998;7.614;2023-05-29T01:50:43;11.40;1.00
23671;DHT22;12012;51.998;7.614;2023-05-29T01:53:10;11.40;1.00
23671;DHT22;12012;51.998;7.614;2023-05-29T01:55:36;11.40;1.00
23671;DHT22;12012;51.998;7.614;2023-05-29T01:58:02;11.40;1.00
23671;DHT22;12012;51.998;7.614;2023-05-29T02:00:28;11.30;1.00
23671;DHT22;12012;51.998;7.614;2023-05-29T02:02:55;11.30;1.00
23671;DHT22;12012;51.998;7.614;2023-05-29T02:05:20;11.30;1.00
23671;DHT22;12012;51.998;7.614;2023-05-29T02:07:47;11.20;1.00
23671;DHT22;12012;51.998;7.614;2023-05-29T02:10:12;11.30;1.00
23671;DHT22;12012;51.998;7.614;2023-05-29T02:12:38;11.20;1.00
23671;DHT22;12012;51.998;7.614;2023-05-29T02:15:03;11.20;1.00
23671;DHT22;12012;51.998;7.614;2023-05-29T02:17:29;11.20;1.00
23671;DHT22;12012;51.998;7.614;2023-05-29T02:19:56;11.20;1.00
23671;DHT22;12012;51.998;7.614;2023-05-29T02:22:21;11.20;1.00
23671;DHT22;12012;51.998;7.614;2023-05-29T02:24:47;11.20;24.20
23671;DHT22;12012;51.998;7.614;2023-05-29T02:27:13;11.20;31.50
23671;DHT22;12012;51.998;7.614;2023-05-29T02:29:38;11.20;91.20
23671;DHT22;12012;51.998;7.614;2023-05-29T02:32:04;11.20;67.40
23671;DHT22;12012;51.998;7.614;2023-05-29T02:34:30;11.20;99.90
23671;DHT22;12012;51.998;7.614;2023-05-29T02:36:55;11.30;99.90
23671;DHT22;12012;51.998;7.614;2023-05-29T02:39:22;11.30;99.90
23671;DHT22;12012;51.998;7.614;2023-05-29T02:41:47;11.30;99.90
23671;DHT22;12012;51.998;7.614;2023-05-29T02:44:13;11.30;99.90
23671;DHT22;12012;51.998;7.614;2023-05-29T02:46:38;11.30;99.90
23671;DHT22;12012;51.998;7.614;2023-05-29T02:49:04;11.30;99.90
23671;DHT22;12012;51.998;7.614;2023-05-29T02:51:30;11.30;99.90
23671;DHT22;12012;51.998;7.614;2023-05-29T02:53:57;11.30;99.90
23671;DHT22;12012;51.998;7.614;2023-05-29T02:56:23;11.30;99.90
23671;DHT22;12012;51.998;7.614;2023-05-29T02:58:52;11.30;99.90
23671;DHT22;12012;51.998;7.614;2023-05-29T03:01:18;11.40;99.90
23671;DHT22;12012;51.998;7.614;2023-05-29T03:03:44;11.40;99.90
23671;DHT22;12012;51.998;7.614;2023-05-29T03:06:10;11.40;99.90
23671;DHT22;12012;51.998;7.614;2023-05-29T03:08:36;11.40;99.90
23671;DHT22;12012;51.998;7.614;2023-05-29T03:11:07;11.40;99.90
23671;DHT22;12012;51.998;7.614;2023-05-29T03:13:36;11.40;99.90
23671;DHT22;12012;51.998;7.614;2023-05-29T03:16:02;11.40;99.90
23671;DHT22;12012;51.998;7.614;2023-05-29T03:18:27;11.40;99.90
23671;DHT22;12012;51.998;7.614;2023-05-29T03:20:53;11.30;99.90
23671;DHT22;12012;51.998;7.614;2023-05-29T03:23:19;11.30;99.90
23671;DHT22;12012;51.998;7.614;2023-05-29T03:25:45;11.30;99.90
23671;DHT22;12012;51.998;7.614;2023-05-29T03:28:10;11.30;99.90
23671;DHT22;12012;51.998;7.614;2023-05-29T03:30:36;11.30;99.90
23671;DHT22;12012;51.998;7.614;2023-05-29T03:33:01;11.30;99.90
23671;DHT22;12012;51.998;7.614;2023-05-29T03:35:29;11.30;99.90
23671;DHT22;12012;51.998;7.614;2023-05-29T03:37:55;11.30;99.90
23671;DHT22;12012;51.998;7.614;2023-05-29T03:40:21;11.30;99.90
23671;DHT22;12012;51.998;7.614;2023-05-29T03:42:46;11.30;99.90
23671;DHT22;12012;51.998;7.614;2023-05-29T03:45:12;11.30;99.90
23671;DHT22;12012;51.998;7.614;2023-05-29T03:47:37;11.30;99.90
23671;DHT22;12012;51.998;7.614;2023-05-29T03:50:03;11.30;99.90
23671;DHT22;12012;51.998;7.614;2023-05-29T03:52:29;11.30;99.90
23671;DHT22;12012;51.998;7.614;2023-05-29T03:54:54;11.30;99.90
23671;DHT22;12012;51.998;7.614;2023-05-29T03:57:20;11.30;99.90
23671;DHT22;12012;51.998;7.614;2023-05-29T03:59:46;11.30;99.90
23671;DHT22;12012;51.998;7.614;2023-05-29T04:02:11;11.30;99.90
23671;DHT22;12012;51.998;7.614;2023-05-29T04:04:37;11.30;99.90
23671;DHT22;12012;51.998;7.614;2023-05-29T04:07:03;11.30;99.90
23671;DHT22;12012;51.998;7.614;2023-05-29T04:09:28;11.30;99.90
23671;DHT22;12012;51.998;7.614;2023-05-29T04:11:54;11.30;99.90
23671;DHT22;12012;51.998;7.614;2023-05-29T04:14:20;11.30;99.90
23671;DHT22;12012;51.998;7.614;2023-05-29T04:16:46;11.30;99.90
23671;DHT22;12012;51.998;7.614;2023-05-29T04:19:11;11.40;99.90
23671;DHT22;12012;51.998;7.614;2023-05-29T04:21:37;11.40;99.90
23671;DHT22;12012;51.998;7.614;2023-05-29T04:24:02;11.40;99.90
23671;DHT22;12012;51.998;7.614;2023-05-29T04:26:28;11.40;99.90
23671;DHT22;12012;51.998;7.614;2023-05-29T04:28:54;11.40;99.90
23671;DHT22;12012;51.998;7.614;2023-05-29T04:31:24;11.40;99.90
23671;DHT22;12012;51.998;7.614;2023-05-29T04:33:52;11.40;99.90
23671;DHT22;12012;51.998;7.614;2023-05-29T04:36:29;11.40;99.90
23671;DHT22;12012;51.998;7.614;2023-05-29T04:38:58;11.40;99.90
23671;DHT22;12012;51.998;7.614;2023-05-29T04:41:24;11.40;99.90
23671;DHT22;12012;51.998;7.614;2023-05-29T04:43:55;11.40;99.90
23671;DHT22;12012;51.998;7.614;2023-05-29T04:46:25;11.40;99.90
23671;DHT22;12012;51.998;7.614;2023-05-29T04:48:54;11.40;99.90
23671;DHT22;12012;51.998;7.614;2023-05-29T04:51:20;11.40;99.90
23671;DHT22;12012;51.998;7.614;2023-05-29T04:53:47;11.40;99.90
23671;DHT22;12012;51.998;7.614;2023-05-29T04:56:13;11.40;99.90
23671;DHT22;12012;51.998;7.614;2023-05-29T04:58:40;11.50;99.90
23671;DHT22;12012;51.998;7.614;2023-05-29T05:01:06;11.50;99.90
23671;DHT22;12012;51.998;7.614;2023-05-29T05:03:33;11.50;99.90
23671;DHT22;12012;51.998;7.614;2023-05-29T05:06:02;11.50;99.90
23671;DHT22;12012;51.998;7.614;2023-05-29T05:08:29;11.50;99.90
23671;DHT22;12012;51.998;7.614;2023-05-29T05:10:55;11.60;99.90
23671;DHT22;12012;51.998;7.614;2023-05-29T05:13:21;11.60;99.90
23671;DHT22;12012;51.998;7.614;2023-05-29T05:15:46;11.60;99.90
23671;DHT22;12012;51.998;7.614;2023-05-29T05:18:12;11.60;99.10
23671;DHT22;12012;51.998;7.614;2023-05-29T05:20:37;11.70;95.10
23671;DHT22;12012;51.998;7.614;2023-05-29T05:23:03;11.70;85.30
23671;DHT22;12012;51.998;7.614;2023-05-29T05:25:28;11.70;45.60
23671;DHT22;12012;51.998;7.614;2023-05-29T05:27:54;11.80;37.20
23671;DHT22;12012;51.998;7.614;2023-05-29T05:30:19;11.80;24.30
23671;DHT22;12012;51.998;7.614;2023-05-29T05:32:45;11.80;13.50
23671;DHT22;12012;51.998;7.614;2023-05-29T05:35:13;11.90;1.00
23671;DHT22;12012;51.998;7.614;2023-05-29T05:37:38;11.90;1.00
23671;DHT22;12012;51.998;7.614;2023-05-29T05:40:05;12.00;1.00
23671;DHT22;12012;51.998;7.614;2023-05-29T05:42:32;12.10;1.00
23671;DHT22;12012;51.998;7.614;2023-05-29T05:44:58;12.10;1.00
23671;DHT22;12012;51.998;7.614;2023-05-29T05:47:23;12.20;1.00
23671;DHT22;12012;51.998;7.614;2023-05-29T05:49:49;12.20;1.00
23671;DHT22;12012;51.998;7.614;2023-05-29T05:52:17;12.30;1.00
23671;DHT22;12012;51.998;7.614;2023-05-29T05:54:43;12.40;1.00
23671;DHT22;12012;51.998;7.614;2023-05-29T05:57:08;12.50;1.00
23671;DHT22;12012;51.998;7.614;2023-05-29T05:59:34;12.60;1.00
23671;DHT22;12012;51.998;7.614;2023-05-29T06:01:59;12.70;1.00
23671;DHT22;12012;51.998;7.614;2023-05-29T06:04:25;12.70;1.00
23671;DHT22;12012;51.998;7.614;2023-05-29T06:06:51;12.80;1.00
23671;DHT22;12012;51.998;7.614;2023-05-29T06:09:17;12.90;99.90
23671;DHT22;12012;51.998;7.614;2023-05-29T06:11:42;13.00;99.90
23671;DHT22;12012;51.998;7.614;2023-05-29T06:14:08;13.00;99.90
23671;DHT22;12012;51.998;7.614;2023-05-29T06:16:34;13.10;99.90
23671;DHT22;12012;51.998;7.614;2023-05-29T06:19:00;13.20;99.90
23671;DHT22;12012;51.998;7.614;2023-05-29T06:21:26;13.20;99.90
23671;DHT22;12012;51.998;7.614;2023-05-29T06:23:52;13.30;99.90
23671;DHT22;12012;51.998;7.614;2023-05-29T06:26:17;13.40;99.90
23671;DHT22;12012;51.998;7.614;2023-05-29T06:28:43;13.50;99.90
23671;DHT22;12012;51.998;7.614;2023-05-29T06:31:09;13.60;99.90
23671;DHT22;12012;51.998;7.614;2023-05-29T06:33:36;13.70;99.90
23671;DHT22;12012;51.998;7.614;2023-05-29T06:36:02;13.80;99.90
23671;DHT22;12012;51.998;7.614;2023-05-29T06:38:28;13.90;99.90
23671;DHT22;12012;51.998;7.614;2023-05-29T06:40:53;13.90;99.90
23671;DHT22;12012;51.998;7.614;2023-05-29T06:43:19;14.00;99.90
23671;DHT22;12012;51.998;7.614;2023-05-29T06:45:44;14.00;99.90
23671;DHT22;12012;51.998;7.614;2023-05-29T06:48:10;14.10;99.90
23671;DHT22;12012;51.998;7.614;2023-05-29T06:50:36;14.20;99.90
23671;DHT22;12012;51.998;7.614;2023-05-29T06:53:01;14.30;99.90
23671;DHT22;12012;51.998;7.614;2023-05-29T06:55:27;14.40;99.90
23671;DHT22;12012;51.998;7.614;2023-05-29T06:57:52;14.50;99.90
23671;DHT22;12012;51.998;7.614;2023-05-29T07:00:18;14.60;99.90
23671;DHT22;12012;51.998;7.614;2023-05-29T07:02:44;14.70;99.90
23671;DHT22;12012;51.998;7.614;2023-05-29T07:05:09;14.70;99.90
23671;DHT22;12012;51.998;7.614;2023-05-29T07:07:35;14.80;99.90
23671;DHT22;12012;51.998;7.614;2023-05-29T07:10:00;14.90;99.90
23671;DHT22;12012;51.998;7.614;2023-05-29T07:12:26;14.90;99.90
23671;DHT22;12012;51.998;7.614;2023-05-29T07:14:52;15.10;99.90
23671;DHT22;12012;51.998;7.614;2023-05-29T07:17:17;15.10;95.80
23671;DHT22;12012;51.998;7.614;2023-05-29T07:19:43;15.20;88.40
23671;DHT22;12012;51.998;7.614;2023-05-29T07:22:09;15.30;76.60
23671;DHT22;12012;51.998;7.614;2023-05-29T07:24:34;15.30;63.00
23671;DHT22;12012;51.998;7.614;2023-05-29T07:27:00;15.40;54.20
23671;DHT22;12012;51.998;7.614;2023-05-29T07:29:25;15.50;49.10
23671;DHT22;12012;51.998;7.614;2023-05-29T07:31:51;15.50;44.80
23671;DHT22;12012;51.998;7.614;2023-05-29T07:34:17;15.70;39.20
23671;DHT22;12012;51.998;7.614;2023-05-29T07:39:23;15.90;28.60
23671;DHT22;12012;51.998;7.614;2023-05-29T07:41:50;16.10;25.30
23671;DHT22;12012;51.998;7.614;2023-05-29T07:44:15;16.20;20.90
23671;DHT22;12012;51.998;7.614;2023-05-29T07:46:41;16.40;14.70
23671;DHT22;12012;51.998;7.614;2023-05-29T07:49:06;16.50;9.90
23671;DHT22;12012;51.998;7.614;2023-05-29T07:51:32;16.60;5.10
23671;DHT22;12012;51.998;7.614;2023-05-29T07:53:57;16.80;1.00
23671;DHT22;12012;51.998;7.614;2023-05-29T07:56:23;16.90;1.00
23671;DHT22;12012;51.998;7.614;2023-05-29T07:58:50;16.90;1.00
23671;DHT22;12012;51.998;7.614;2023-05-29T08:01:18;17.10;1.00
23671;DHT22;12012;51.998;7.614;2023-05-29T08:03:44;17.20;1.00
23671;DHT22;12012;51.998;7.614;2023-05-29T08:06:10;17.40;1.00
23671;DHT22;12012;51.998;7.614;2023-05-29T08:08:36;17.60;1.00
23671;DHT22;12012;51.998;7.614;2023-05-29T08:11:02;17.80;1.00
23671;DHT22;12012;51.998;7.614;2023-05-29T08:13:29;18.00;1.00
23671;DHT22;12012;51.998;7.614;2023-05-29T08:15:55;18.30;1.00
23671;DHT22;12012;51.998;7.614;2023-05-29T08:18:24;18.70;1.00
23671;DHT22;12012;51.998;7.614;2023-05-29T08:20:50;19.00;1.00
23671;DHT22;12012;51.998;7.614;2023-05-29T08:23:16;19.40;1.00
23671;DHT22;12012;51.998;7.614;2023-05-29T08:25:41;19.60;1.00
23671;DHT22;12012;51.998;7.614;2023-05-29T08:28:07;19.90;1.00
23671;DHT22;12012;51.998;7.614;2023-05-29T08:30:32;20.20;1.00
23671;DHT22;12012;51.998;7.614;2023-05-29T08:32:58;20.40;1.00
23671;DHT22;12012;51.998;7.614;2023-05-29T08:35:23;20.60;1.00
23671;DHT22;12012;51.998;7.614;2023-05-29T08:37:49;20.80;1.00
23671;DHT22;12012;51.998;7.614;2023-05-29T08:40:15;20.90;1.00
23671;DHT22;12012;51.998;7.614;2023-05-29T08:42:51;21.00;1.00
23671;DHT22;12012;51.998;7.614;2023-05-29T08:45:19;21.10;1.00
23671;DHT22;12012;51.998;7.614;2023-05-29T08:47:51;21.20;1.00
23671;DHT22;12012;51.998;7.614;2023-05-29T08:50:18;21.30;1.00
23671;DHT22;12012;51.998;7.614;2023-05-29T08:52:44;21.40;1.00
23671;DHT22;12012;51.998;7.614;2023-05-29T08:55:10;21.50;1.00
23671;DHT22;12012;51.998;7.614;2023-05-29T08:57:37;21.70;1.00
23671;DHT22;12012;51.998;7.614;2023-05-29T09:00:04;21.90;1.00
23671;DHT22;12012;51.998;7.614;2023-05-29T09:02:43;22.00;1.00
23671;DHT22;12012;51.998;7.614;2023-05-29T09:05:09;22.10;1.00
23671;DHT22;12012;51.998;7.614;2023-05-29T09:07:38;22.20;1.00
23671;DHT22;12012;51.998;7.614;2023-05-29T09:10:08;22.50;1.00
23671;DHT22;12012;51.998;7.614;2023-05-29T09:12:34;22.80;1.00
23671;DHT22;12012;51.998;7.614;2023-05-29T09:15:01;23.10;1.00
23671;DHT22;12012;51.998;7.614;2023-05-29T09:17:35;23.30;1.00
23671;DHT22;12012;51.998;7.614;2023-05-29T09:20:01;23.50;1.00
23671;DHT22;12012;51.998;7.614;2023-05-29T09:22:30;23.70;1.00
23671;DHT22;12012;51.998;7.614;2023-05-29T09:24:57;23.80;1.00
23671;DHT22;12012;51.998;7.614;2023-05-29T09:27:23;23.90;1.00
23671;DHT22;12012;51.998;7.614;2023-05-29T09:29:48;24.00;1.00
23671;DHT22;12012;51.998;7.614;2023-05-29T09:32:16;24.10;1.00
23671;DHT22;12012;51.998;7.614;2023-05-29T09:34:45;24.20;1.00
23671;DHT22;12012;51.998;7.614;2023-05-29T09:37:11;24.40;1.00
23671;DHT22;12012;51.998;7.614;2023-05-29T09:39:45;24.60;1.00
23671;DHT22;12012;51.998;7.614;2023-05-29T09:42:11;24.90;1.00
23671;DHT22;12012;51.998;7.614;2023-05-29T09:44:37;25.00;1.00
23671;DHT22;12012;51.998;7.614;2023-05-29T09:47:02;25.20;1.00
23671;DHT22;12012;51.998;7.614;2023-05-29T09:49:32;25.30;1.00
23671;DHT22;12012;51.998;7.614;2023-05-29T09:51:58;25.40;1.00
23671;DHT22;12012;51.998;7.614;2023-05-29T09:54:29;25.50;1.00
23671;DHT22;12012;51.998;7.614;2023-05-29T09:56:57;25.50;1.00
23671;DHT22;12012;51.998;7.614;2023-05-29T09:59:23;25.60;1.00
23671;DHT22;12012;51.998;7.614;2023-05-29T10:02:01;25.50;1.00
23671;DHT22;12012;51.998;7.614;2023-05-29T10:04:35;25.40;1.00
23671;DHT22;12012;51.998;7.614;2023-05-29T10:07:09;25.50;1.00
23671;DHT22;12012;51.998;7.614;2023-05-29T10:09:42;25.60;1.00
23671;DHT22;12012;51.998;7.614;2023-05-29T10:12:11;25.80;1.00
23671;DHT22;12012;51.998;7.614;2023-05-29T10:14:37;26.10;1.00
23671;DHT22;12012;51.998;7.614;2023-05-29T10:17:07;26.30;1.00
23671;DHT22;12012;51.998;7.614;2023-05-29T10:19:36;26.50;1.00
23671;DHT22;12012;51.998;7.614;2023-05-29T10:22:04;26.60;1.00
23671;DHT22;12012;51.998;7.614;2023-05-29T10:24:32;26.70;1.00
23671;DHT22;12012;51.998;7.614;2023-05-29T10:26:58;26.80;1.00
23671;DHT22;12012;51.998;7.614;2023-05-29T10:29:46;26.80;1.00
23671;DHT22;12012;51.998;7.614;2023-05-29T10:32:36;26.80;1.00
23671;DHT22;12012;51.998;7.614;2023-05-29T10:35:25;26.70;1.00
23671;DHT22;12012;51.998;7.614;2023-05-29T10:38:18;26.70;1.00
23671;DHT22;12012;51.998;7.614;2023-05-29T10:40:44;26.90;1.00
23671;DHT22;12012;51.998;7.614;2023-05-29T10:43:29;27.00;1.00
23671;DHT22;12012;51.998;7.614;2023-05-29T10:45:56;27.20;1.00
23671;DHT22;12012;51.998;7.614;2023-05-29T10:50:55;27.50;1.00
23671;DHT22;12012;51.998;7.614;2023-05-29T10:53:25;27.60;1.00
23671;DHT22;12012;51.998;7.614;2023-05-29T10:55:54;27.70;1.00
23671;DHT22;12012;51.998;7.614;2023-05-29T10:58:21;27.70;1.00
23671;DHT22;12012;51.998;7.614;2023-05-29T11:00:48;27.80;1.00
23671;DHT22;12012;51.998;7.614;2023-05-29T11:03:15;27.90;1.00
23671;DHT22;12012;51.998;7.614;2023-05-29T11:06:07;28.00;1.00
23671;DHT22;12012;51.998;7.614;2023-05-29T11:11:32;28.40;1.00
23671;DHT22;12012;51.998;7.614;2023-05-29T11:14:03;28.40;1.00
23671;DHT22;12012;51.998;7.614;2023-05-29T11:18:57;28.60;1.00
23671;DHT22;12012;51.998;7.614;2023-05-29T11:24:02;28.50;1.00
23671;DHT22;12012;51.998;7.614;2023-05-29T11:26:29;28.50;1.00
23671;DHT22;12012;51.998;7.614;2023-05-29T11:29:08;28.70;1.00
23671;DHT22;12012;51.998;7.614;2023-05-29T11:31:37;28.80;1.00
23671;DHT22;12012;51.998;7.614;2023-05-29T11:34:04;29.00;1.00
23671;DHT22;12012;51.998;7.614;2023-05-29T11:36:32;29.40;1.00
23671;DHT22;12012;51.998;7.614;2023-05-29T11:38:59;29.70;1.00
23671;DHT22;12012;51.998;7.614;2023-05-29T11:41:25;30.00;1.00
23671;DHT22;12012;51.998;7.614;2023-05-29T11:44:02;30.30;1.00
23671;DHT22;12012;51.998;7.614;2023-05-29T11:46:28;30.70;1.00
23671;DHT22;12012;51.998;7.614;2023-05-29T11:48:56;31.00;1.00
23671;DHT22;12012;51.998;7.614;2023-05-29T11:51:22;31.30;1.00
23671;DHT22;12012;51.998;7.614;2023-05-29T11:53:48;31.10;1.00
23671;DHT22;12012;51.998;7.614;2023-05-29T11:56:14;30.80;1.00
23671;DHT22;12012;51.998;7.614;2023-05-29T11:58:41;30.40;1.00
23671;DHT22;12012;51.998;7.614;2023-05-29T12:01:07;30.40;1.00
23671;DHT22;12012;51.998;7.614;2023-05-29T12:03:42;30.60;1.00
23671;DHT22;12012;51.998;7.614;2023-05-29T12:06:09;30.90;1.00
23671;DHT22;12012;51.998;7.614;2023-05-29T12:08:36;31.10;1.00
23671;DHT22;12012;51.998;7.614;2023-05-29T12:11:02;31.40;1.00
23671;DHT22;12012;51.998;7.614;2023-05-29T12:13:27;31.60;1.00
23671;DHT22;12012;51.998;7.614;2023-05-29T12:15:56;31.70;1.00
23671;DHT22;12012;51.998;7.614;2023-05-29T12:18:23;31.60;1.00
23671;DHT22;12012;51.998;7.614;2023-05-29T12:20:50;31.60;1.00
23671;DHT22;12012;51.998;7.614;2023-05-29T12:23:17;31.50;1.00
23671;DHT22;12012;51.998;7.614;2023-05-29T12:25:46;31.60;1.00
23671;DHT22;12012;51.998;7.614;2023-05-29T12:28:16;31.60;1.00
23671;DHT22;12012;51.998;7.614;2023-05-29T12:30:45;31.70;1.00
23671;DHT22;12012;51.998;7.614;2023-05-29T12:33:36;31.80;1.00
23671;DHT22;12012;51.998;7.614;2023-05-29T12:36:06;31.90;1.00
23671;DHT22;12012;51.998;7.614;2023-05-29T12:38:32;32.10;1.00
23671;DHT22;12012;51.998;7.614;2023-05-29T12:40:58;32.00;1.00
23671;DHT22;12012;51.998;7.614;2023-05-29T12:43:24;32.10;1.00
23671;DHT22;12012;51.998;7.614;2023-05-29T12:45:55;32.30;1.00
23671;DHT22;12012;51.998;7.614;2023-05-29T12:48:27;32.40;1.00
23671;DHT22;12012;51.998;7.614;2023-05-29T12:50:53;32.30;1.00
23671;DHT22;12012;51.998;7.614;2023-05-29T12:53:18;32.10;1.00
23671;DHT22;12012;51.998;7.614;2023-05-29T12:55:46;31.90;1.00
23671;DHT22;12012;51.998;7.614;2023-05-29T12:58:13;31.80;1.00
23671;DHT22;12012;51.998;7.614;2023-05-29T13:00:42;31.90;1.00
23671;DHT22;12012;51.998;7.614;2023-05-29T13:03:08;32.00;1.00
23671;DHT22;12012;51.998;7.614;2023-05-29T13:05:34;31.80;1.00
23671;DHT22;12012;51.998;7.614;2023-05-29T13:08:00;31.70;1.00
23671;DHT22;12012;51.998;7.614;2023-05-29T13:10:27;31.70;1.00
23671;DHT22;12012;51.998;7.614;2023-05-29T13:12:54;31.90;1.00
23671;DHT22;12012;51.998;7.614;2023-05-29T13:15:23;32.20;1.00
23671;DHT22;12012;51.998;7.614;2023-05-29T13:17:49;32.30;1.00
23671;DHT22;12012;51.998;7.614;2023-05-29T13:20:15;32.30;1.00
23671;DHT22;12012;51.998;7.614;2023-05-29T13:22:43;32.40;1.00
23671;DHT22;12012;51.998;7.614;2023-05-29T13:25:10;32.60;1.00
23671;DHT22;12012;51.998;7.614;2023-05-29T13:27:38;33.00;1.00
23671;DHT22;12012;51.998;7.614;2023-05-29T13:30:05;33.10;1.00
23671;DHT22;12012;51.998;7.614;2023-05-29T13:32:31;33.00;1.00
23671;DHT22;12012;51.998;7.614;2023-05-29T13:34:57;32.80;1.00
23671;DHT22;12012;51.998;7.614;2023-05-29T13:37:23;32.70;1.00
23671;DHT22;12012;51.998;7.614;2023-05-29T13:39:48;32.90;1.00
23671;DHT22;12012;51.998;7.614;2023-05-29T13:42:14;33.00;1.00
23671;DHT22;12012;51.998;7.614;2023-05-29T13:44:40;33.00;1.00
23671;DHT22;12012;51.998;7.614;2023-05-29T13:47:06;33.10;1.00
23671;DHT22;12012;51.998;7.614;2023-05-29T13:49:32;33.30;1.00
23671;DHT22;12012;51.998;7.614;2023-05-29T13:51:58;33.40;1.00
23671;DHT22;12012;51.998;7.614;2023-05-29T13:54:23;33.40;1.00
23671;DHT22;12012;51.998;7.614;2023-05-29T13:56:49;33.30;1.00
23671;DHT22;12012;51.998;7.614;2023-05-29T13:59:15;33.10;1.00
23671;DHT22;12012;51.998;7.614;2023-05-29T14:01:40;33.10;1.00
23671;DHT22;12012;51.998;7.614;2023-05-29T14:04:06;33.20;1.00
23671;DHT22;12012;51.998;7.614;2023-05-29T14:06:33;33.20;1.00
23671;DHT22;12012;51.998;7.614;2023-05-29T14:08:59;33.20;1.00
23671;DHT22;12012;51.998;7.614;2023-05-29T14:11:26;33.20;1.00
23671;DHT22;12012;51.998;7.614;2023-05-29T14:13:52;33.20;1.00
23671;DHT22;12012;51.998;7.614;2023-05-29T14:16:17;33.30;1.00
23671;DHT22;12012;51.998;7.614;2023-05-29T14:18:43;33.40;1.00
23671;DHT22;12012;51.998;7.614;2023-05-29T14:21:08;33.30;1.00
23671;DHT22;12012;51.998;7.614;2023-05-29T14:23:35;33.20;1.00
23671;DHT22;12012;51.998;7.614;2023-05-29T14:26:01;33.20;1.00
23671;DHT22;12012;51.998;7.614;2023-05-29T14:28:27;33.20;1.00
23671;DHT22;12012;51.998;7.614;2023-05-29T14:30:52;33.20;1.00
23671;DHT22;12012;51.998;7.614;2023-05-29T14:33:19;33.20;1.00
23671;DHT22;12012;51.998;7.614;2023-05-29T14:35:44;33.20;1.00
23671;DHT22;12012;51.998;7.614;2023-05-29T14:38:10;33.20;1.00
23671;DHT22;12012;51.998;7.614;2023-05-29T14:40:35;33.10;1.00
23671;DHT22;12012;51.998;7.614;2023-05-29T14:43:02;33.10;1.00
23671;DHT22;12012;51.998;7.614;2023-05-29T14:45:28;33.00;1.00
23671;DHT22;12012;51.998;7.614;2023-05-29T14:47:54;32.90;1.00
23671;DHT22;12012;51.998;7.614;2023-05-29T14:50:19;32.70;1.00
23671;DHT22;12012;51.998;7.614;2023-05-29T14:52:45;32.50;1.00
23671;DHT22;12012;51.998;7.614;2023-05-29T14:55:12;32.20;1.00
23671;DHT22;12012;51.998;7.614;2023-05-29T14:57:40;32.30;1.00
23671;DHT22;12012;51.998;7.614;2023-05-29T15:00:07;32.40;1.00
23671;DHT22;12012;51.998;7.614;2023-05-29T15:02:32;32.50;1.00
23671;DHT22;12012;51.998;7.614;2023-05-29T15:04:58;32.50;1.00
23671;DHT22;12012;51.998;7.614;2023-05-29T15:07:24;32.50;1.00
23671;DHT22;12012;51.998;7.614;2023-05-29T15:09:49;32.50;1.00
23671;DHT22;12012;51.998;7.614;2023-05-29T15:12:15;32.50;1.00
23671;DHT22;12012;51.998;7.614;2023-05-29T15:14:41;32.40;1.00
23671;DHT22;12012;51.998;7.614;2023-05-29T15:17:06;32.30;1.00
23671;DHT22;12012;51.998;7.614;2023-05-29T15:19:32;32.20;1.00
23671;DHT22;12012;51.998;7.614;2023-05-29T15:21:58;32.10;1.00
23671;DHT22;12012;51.998;7.614;2023-05-29T15:24:24;32.00;1.00
23671;DHT22;12012;51.998;7.614;2023-05-29T15:26:49;31.90;1.00
23671;DHT22;12012;51.998;7.614;2023-05-29T15:29:16;31.70;1.00
23671;DHT22;12012;51.998;7.614;2023-05-29T15:31:41;31.60;1.00
23671;DHT22;12012;51.998;7.614;2023-05-29T15:34:07;31.50;1.00
23671;DHT22;12012;51.998;7.614;2023-05-29T15:36:33;31.20;1.00
23671;DHT22;12012;51.998;7.614;2023-05-29T15:38:59;30.90;1.00
23671;DHT22;12012;51.998;7.614;2023-05-29T15:41:25;30.80;1.00
23671;DHT22;12012;51.998;7.614;2023-05-29T15:43:57;30.50;1.00
23671;DHT22;12012;51.998;7.614;2023-05-29T15:46:27;30.40;1.00
23671;DHT22;12012;51.998;7.614;2023-05-29T15:48:54;30.20;1.00
23671;DHT22;12012;51.998;7.614;2023-05-29T15:51:19;30.00;1.00
23671;DHT22;12012;51.998;7.614;2023-05-29T15:53:45;29.90;1.00
23671;DHT22;12012;51.998;7.614;2023-05-29T15:56:11;29.80;1.00
23671;DHT22;12012;51.998;7.614;2023-05-29T15:58:37;29.60;1.00
23671;DHT22;12012;51.998;7.614;2023-05-29T16:01:02;29.30;1.00